Time;durP1;ratioP1;P1;durP2;ratioP2;P2;SDS_P1;SDS_P2;PMS_P1;PMS_P2;Temp;Humidity;BMP_temperature;BMP_pressure;BME280_temperature;BME280_humidity;BME280_pressure;Samples;Min_cycle;Max_cycle;Signal;HPM_P1;HPM_P2
2024/01/26 00:02:01;;;;;;;7.73;3.93;;;10.30;99.90;;;;;;5073987;28;20246;-73
2024/01/26 00:04:27;;;;;;;3.50;3.20;;;10.30;99.90;;;;;;5073638;28;20182;-73
2024/01/26 00:06:53;;;;;;;3.03;2.83;;;10.40;99.90;;;;;;5073577;28;20482;-73
2024/01/26 00:09:18;;;;;;;4.77;3.20;;;10.30;99.90;;;;;;5073749;28;20167;-72
2024/01/26 00:11:44;;;;;;;4.30;3.13;;;10.40;99.90;;;;;;5072404;28;20170;-73
2024/01/26 00:14:10;;;;;;;5.23;4.20;;;10.50;99.90;;;;;;5073437;28;20208;-73
2024/01/26 00:16:37;;;;;;;5.20;3.90;;;10.40;99.90;;;;;;5073422;28;20178;-72
2024/01/26 00:19:04;;;;;;;4.63;3.43;;;10.40;99.90;;;;;;5073566;28;20416;-72
2024/01/26 00:21:29;;;;;;;4.43;3.90;;;10.30;99.90;;;;;;5073529;28;20404;-73
2024/01/26 00:23:55;;;;;;;5.37;3.90;;;10.40;99.90;;;;;;5073292;28;20813;-72
2024/01/26 00:26:20;;;;;;;4.43;3.80;;;10.40;99.90;;;;;;5072889;28;20589;-72
2024/01/26 00:28:46;;;;;;;3.73;3.10;;;10.50;99.90;;;;;;5068965;28;20213;-73
2024/01/26 00:31:18;;;;;;;6.07;3.50;;;10.50;99.90;;;;;;5071815;28;20173;-73
2024/01/26 00:33:45;;;;;;;5.47;3.63;;;10.40;99.90;;;;;;5071532;28;20170;-70
2024/01/26 00:36:11;;;;;;;4.10;3.70;;;10.60;99.90;;;;;;5069446;28;20435;-72
2024/01/26 00:38:37;;;;;;;5.13;4.63;;;10.50;99.90;;;;;;5073012;28;20461;-72
2024/01/26 00:41:03;;;;;;;5.07;3.90;;;10.60;99.90;;;;;;5072973;28;20590;-72
2024/01/26 00:43:28;;;;;;;4.93;3.43;;;10.60;99.90;;;;;;5073013;28;20192;-72
2024/01/26 00:45:54;;;;;;;5.40;3.67;;;10.60;99.90;;;;;;5072804;28;20192;-72
2024/01/26 00:48:20;;;;;;;4.40;3.93;;;10.50;99.90;;;;;;5072866;28;20572;-73
2024/01/26 00:50:46;;;;;;;3.70;3.37;;;10.40;99.90;;;;;;5071640;28;20190;-72
2024/01/26 00:53:12;;;;;;;7.27;3.83;;;10.50;99.90;;;;;;5072899;28;20548;-71
2024/01/26 00:55:38;;;;;;;6.03;3.80;;;10.40;99.90;;;;;;5070473;28;20892;-71
2024/01/26 00:58:03;;;;;;;5.57;3.80;;;10.40;99.90;;;;;;5072454;28;20202;-72
2024/01/26 01:00:29;;;;;;;5.37;3.73;;;10.40;99.90;;;;;;5072495;28;20189;-73
2024/01/26 01:02:55;;;;;;;4.40;3.77;;;10.50;99.90;;;;;;5072563;28;20163;-73
2024/01/26 01:05:20;;;;;;;3.50;3.20;;;10.50;99.90;;;;;;5072425;28;20677;-73
2024/01/26 01:07:46;;;;;;;3.90;3.40;;;10.60;99.90;;;;;;5072369;28;20173;-72
2024/01/26 01:10:13;;;;;;;5.37;3.97;;;10.50;99.90;;;;;;5072468;28;20215;-73
2024/01/26 01:12:42;;;;;;;6.13;4.53;;;10.60;99.90;;;;;;5072423;28;20412;-73
2024/01/26 01:15:12;;;;;;;4.30;3.90;;;10.60;99.90;;;;;;5072278;28;20517;-73
2024/01/26 01:17:39;;;;;;;5.53;4.30;;;10.70;99.90;;;;;;5072348;28;20829;-71
2024/01/26 01:20:08;;;;;;;9.47;3.80;;;10.70;99.90;;;;;;5072333;28;20401;-72
2024/01/26 01:22:34;;;;;;;5.40;3.70;;;10.70;99.90;;;;;;5070969;28;20927;-73
2024/01/26 01:24:59;;;;;;;4.07;3.07;;;10.80;99.90;;;;;;5072100;28;20435;-73
2024/01/26 01:27:25;;;;;;;6.30;3.77;;;10.80;99.90;;;;;;5071974;28;20404;-73
2024/01/26 01:29:50;;;;;;;4.73;3.60;;;10.80;99.90;;;;;;5072152;28;20248;-73
2024/01/26 01:32:16;;;;;;;3.17;2.83;;;10.90;99.90;;;;;;5072179;28;20166;-73
2024/01/26 01:34:43;;;;;;;5.73;3.77;;;10.90;99.90;;;;;;5066311;28;20568;-72
2024/01/26 01:37:08;;;;;;;5.00;3.40;;;10.90;99.90;;;;;;5062965;28;20254;-71
2024/01/26 01:39:34;;;;;;;5.33;4.17;;;11.00;99.90;;;;;;5072024;28;20487;-73
2024/01/26 01:42:00;;;;;;;9.30;4.30;;;11.00;99.90;;;;;;5070600;28;20174;-72
2024/01/26 01:44:25;;;;;;;6.53;4.20;;;11.00;99.90;;;;;;5071788;28;20190;-73
2024/01/26 01:46:51;;;;;;;4.50;3.70;;;11.10;99.90;;;;;;5070428;28;20562;-72
2024/01/26 01:49:17;;;;;;;5.03;4.20;;;11.10;99.90;;;;;;5072155;28;20163;-72
2024/01/26 01:51:45;;;;;;;5.87;4.30;;;11.10;99.90;;;;;;5071916;28;20462;-73
2024/01/26 01:54:12;;;;;;;4.77;4.10;;;11.20;99.90;;;;;;5070347;28;20456;-73
2024/01/26 01:56:41;;;;;;;10.13;4.90;;;11.20;99.90;;;;;;5071646;28;20408;-74
2024/01/26 01:59:08;;;;;;;15.97;5.10;;;11.20;99.90;;;;;;5072026;28;20419;-71
2024/01/26 02:01:34;;;;;;;6.20;4.63;;;11.20;99.90;;;;;;5071898;28;20915;-72
2024/01/26 02:04:02;;;;;;;5.47;4.40;;;11.20;99.90;;;;;;5071657;28;20730;-73
2024/01/26 02:06:28;;;;;;;7.47;4.60;;;11.20;99.90;;;;;;5071015;28;20396;-73
2024/01/26 02:08:54;;;;;;;5.27;4.10;;;11.20;99.90;;;;;;5070507;28;20409;-73
2024/01/26 02:11:19;;;;;;;5.60;5.10;;;11.30;99.90;;;;;;5071293;28;20409;-73
2024/01/26 02:13:45;;;;;;;6.00;4.20;;;11.20;99.90;;;;;;5070558;28;20576;-73
2024/01/26 02:16:10;;;;;;;9.23;5.80;;;11.30;99.90;;;;;;5071286;28;20202;-73
2024/01/26 02:18:36;;;;;;;5.07;4.47;;;11.20;99.90;;;;;;5070932;28;20174;-73
2024/01/26 02:21:02;;;;;;;5.87;3.90;;;11.30;99.90;;;;;;5071897;28;20166;-73
2024/01/26 02:23:27;;;;;;;6.40;5.37;;;11.20;99.90;;;;;;5071876;28;20169;-73
2024/01/26 02:25:53;;;;;;;7.00;4.70;;;11.20;99.90;;;;;;5071281;28;20435;-73
2024/01/26 02:28:18;;;;;;;6.03;4.70;;;11.30;99.90;;;;;;5071588;28;20170;-72
2024/01/26 02:30:44;;;;;;;6.90;4.40;;;11.20;99.90;;;;;;5071560;28;20170;-71
2024/01/26 02:33:09;;;;;;;5.57;4.90;;;11.10;99.90;;;;;;5071518;28;20209;-73
2024/01/26 02:35:35;;;;;;;5.00;3.87;;;11.20;99.90;;;;;;5062013;28;20218;-71
2024/01/26 02:38:00;;;;;;;8.27;6.00;;;11.20;99.90;;;;;;5071078;28;20225;-73
2024/01/26 02:40:26;;;;;;;6.97;4.53;;;11.20;99.90;;;;;;5071295;28;20166;-73
2024/01/26 02:42:52;;;;;;;6.03;4.10;;;11.20;99.90;;;;;;5071451;28;20185;-73
2024/01/26 02:45:17;;;;;;;9.33;5.37;;;11.20;99.90;;;;;;5071354;28;20247;-73
2024/01/26 02:47:43;;;;;;;5.33;4.80;;;11.20;99.90;;;;;;5069864;28;20253;-73
2024/01/26 02:50:09;;;;;;;4.93;4.30;;;11.20;99.90;;;;;;5071414;28;20645;-73
2024/01/26 02:52:36;;;;;;;6.23;3.93;;;11.20;99.90;;;;;;5071105;28;20548;-73
2024/01/26 02:55:01;;;;;;;5.67;5.10;;;11.20;99.90;;;;;;5071256;28;20597;-73
2024/01/26 02:57:27;;;;;;;4.57;3.87;;;11.20;99.90;;;;;;5069806;28;20440;-73
2024/01/26 02:59:52;;;;;;;5.73;4.63;;;11.20;99.90;;;;;;5071342;28;20166;-73
2024/01/26 03:02:18;;;;;;;6.80;4.10;;;11.20;99.90;;;;;;5071254;28;20171;-72
2024/01/26 03:04:43;;;;;;;6.90;4.40;;;11.20;99.90;;;;;;5071229;28;20190;-73
2024/01/26 03:07:09;;;;;;;9.00;4.23;;;11.20;99.90;;;;;;5070878;28;20167;-72
2024/01/26 03:09:34;;;;;;;4.30;3.83;;;11.20;99.90;;;;;;5071186;28;20171;-72
2024/01/26 03:12:00;;;;;;;5.93;4.83;;;11.20;99.90;;;;;;5070986;28;20633;-72
2024/01/26 03:14:25;;;;;;;6.27;3.90;;;11.20;99.90;;;;;;5070699;28;20201;-73
2024/01/26 03:16:51;;;;;;;4.60;3.60;;;11.20;99.90;;;;;;5070734;28;20220;-73
2024/01/26 03:19:16;;;;;;;5.80;3.90;;;11.20;99.90;;;;;;5072442;28;20224;-73
2024/01/26 03:21:43;;;;;;;3.40;3.03;;;11.20;99.90;;;;;;5074655;28;20424;-73
2024/01/26 03:24:09;;;;;;;5.10;4.47;;;11.20;99.90;;;;;;5074526;28;20275;-73
2024/01/26 03:26:35;;;;;;;7.67;2.63;;;11.20;99.90;;;;;;5074323;28;20771;-72
2024/01/26 03:29:01;;;;;;;6.00;4.40;;;11.10;99.90;;;;;;5074600;28;20396;-72
2024/01/26 03:31:27;;;;;;;4.33;2.80;;;11.10;99.90;;;;;;5074554;28;20227;-73
2024/01/26 03:33:52;;;;;;;2.90;2.47;;;11.10;99.90;;;;;;5074388;28;20484;-73
2024/01/26 03:36:18;;;;;;;4.07;3.13;;;11.10;99.90;;;;;;5065873;28;20209;-73
2024/01/26 03:38:44;;;;;;;3.00;2.50;;;11.10;99.90;;;;;;5074242;28;20177;-72
2024/01/26 03:41:09;;;;;;;3.33;3.03;;;11.20;99.90;;;;;;5074393;28;20174;-73
2024/01/26 03:43:36;;;;;;;5.43;3.10;;;11.10;99.90;;;;;;5074181;28;20408;-73
2024/01/26 03:46:08;;;;;;;2.10;1.90;;;11.10;99.90;;;;;;5073844;28;20205;-71
2024/01/26 03:48:33;;;;;;;3.40;2.50;;;11.10;99.90;;;;;;5074079;28;20409;-72
2024/01/26 03:50:59;;;;;;;4.43;2.47;;;11.00;99.90;;;;;;5074082;28;20408;-73
2024/01/26 03:53:25;;;;;;;5.17;2.03;;;11.00;99.90;;;;;;5073941;28;20182;-73
2024/01/26 03:55:52;;;;;;;3.93;2.30;;;11.00;99.90;;;;;;5073722;28;20684;-72
2024/01/26 03:58:18;;;;;;;3.30;2.13;;;11.00;99.90;;;;;;5074019;28;20190;-72
2024/01/26 04:00:43;;;;;;;3.60;2.77;;;11.00;99.90;;;;;;5073973;28;20480;-72
2024/01/26 04:03:09;;;;;;;2.87;2.13;;;10.90;99.90;;;;;;5073632;28;20201;-71
2024/01/26 04:05:34;;;;;;;4.20;1.90;;;10.90;99.90;;;;;;5073699;28;20661;-73
2024/01/26 04:08:00;;;;;;;2.40;2.20;;;10.80;99.90;;;;;;5072303;28;20249;-73
2024/01/26 04:10:25;;;;;;;1.80;1.70;;;10.80;99.90;;;;;;5073557;28;20180;-72
2024/01/26 04:12:51;;;;;;;2.50;2.30;;;10.70;99.90;;;;;;5073774;28;20170;-72
2024/01/26 04:15:16;;;;;;;2.47;2.20;;;10.70;99.90;;;;;;5073488;28;20197;-71
2024/01/26 04:17:42;;;;;;;3.63;2.30;;;10.70;99.90;;;;;;5073316;28;20173;-73
2024/01/26 04:20:08;;;;;;;2.53;1.80;;;10.60;99.90;;;;;;5073525;28;20203;-72
2024/01/26 04:22:34;;;;;;;2.63;2.30;;;10.60;99.90;;;;;;5072448;28;20633;-72
2024/01/26 04:24:59;;;;;;;3.57;2.20;;;10.60;99.90;;;;;;5073345;28;20435;-72
2024/01/26 04:27:25;;;;;;;4.40;2.50;;;10.60;99.90;;;;;;5073134;28;20167;-72
2024/01/26 04:29:50;;;;;;;2.37;2.17;;;10.60;99.90;;;;;;5073239;28;20166;-71
2024/01/26 04:32:16;;;;;;;2.37;2.03;;;10.50;99.90;;;;;;5071846;28;20185;-71
2024/01/26 04:34:41;;;;;;;2.50;2.20;;;10.50;99.90;;;;;;5071910;28;20202;-72
2024/01/26 04:37:07;;;;;;;2.23;2.03;;;10.50;99.90;;;;;;5070154;28;20181;-73
2024/01/26 04:39:33;;;;;;;3.93;2.50;;;10.40;99.90;;;;;;5072911;28;20159;-71
2024/01/26 04:41:59;;;;;;;5.20;2.17;;;10.50;99.90;;;;;;5071594;28;20538;-71
2024/01/26 04:44:24;;;;;;;2.47;2.27;;;10.40;99.90;;;;;;5072726;28;20190;-72
2024/01/26 04:46:53;;;;;;;1.97;1.80;;;10.50;99.90;;;;;;5073192;28;20166;-72
2024/01/26 04:49:18;;;;;;;2.37;1.70;;;10.40;99.90;;;;;;5072984;28;20163;-71
2024/01/26 04:51:44;;;;;;;1.70;1.30;;;10.50;99.90;;;;;;5072948;28;20482;-73
2024/01/26 04:54:09;;;;;;;1.70;1.43;;;10.50;99.90;;;;;;5072798;28;20184;-73
2024/01/26 04:56:35;;;;;;;2.50;1.67;;;10.60;99.90;;;;;;5072769;28;20193;-72
2024/01/26 04:59:01;;;;;;;2.50;1.53;;;10.60;99.90;;;;;;5072790;28;20162;-73
2024/01/26 05:01:26;;;;;;;1.90;1.30;;;10.60;99.90;;;;;;5072753;28;20162;-72
2024/01/26 05:03:52;;;;;;;1.93;1.20;;;10.60;99.90;;;;;;5072694;28;20163;-71
2024/01/26 05:06:18;;;;;;;2.63;1.50;;;10.70;99.90;;;;;;5072391;28;20270;-71
2024/01/26 05:08:43;;;;;;;2.00;1.37;;;10.80;99.90;;;;;;5072520;28;20174;-71
2024/01/26 05:11:09;;;;;;;2.20;1.10;;;10.80;99.90;;;;;;5072490;28;20907;-72
2024/01/26 05:13:34;;;;;;;1.30;1.20;;;10.80;99.90;;;;;;5072205;28;20166;-73
2024/01/26 05:16:00;;;;;;;1.70;1.30;;;10.80;99.90;;;;;;5071774;28;20332;-73
2024/01/26 05:18:27;;;;;;;1.83;1.30;;;10.80;99.90;;;;;;5072106;28;20162;-72
2024/01/26 05:20:52;;;;;;;2.30;1.43;;;10.80;99.90;;;;;;5072451;28;20162;-73
2024/01/26 05:23:18;;;;;;;1.40;1.30;;;10.80;99.90;;;;;;5072368;28;20403;-72
2024/01/26 05:25:45;;;;;;;2.60;1.87;;;10.80;99.90;;;;;;5072283;28;20198;-72
2024/01/26 05:28:10;;;;;;;1.93;1.40;;;10.80;99.90;;;;;;5072191;28;20513;-72
2024/01/26 05:30:36;;;;;;;2.40;1.40;;;10.70;99.90;;;;;;5072145;28;20412;-72
2024/01/26 05:33:02;;;;;;;1.70;1.40;;;10.80;99.90;;;;;;5072087;28;20216;-72
2024/01/26 05:35:27;;;;;;;2.50;1.10;;;10.70;99.90;;;;;;5066650;28;20280;-72
2024/01/26 05:37:53;;;;;;;2.00;1.27;;;10.70;99.90;;;;;;5070747;28;20177;-72
2024/01/26 05:40:18;;;;;;;1.50;1.40;;;10.70;99.90;;;;;;5066036;28;20178;-72
2024/01/26 05:42:44;;;;;;;2.70;1.07;;;10.70;99.90;;;;;;5071010;28;20539;-73
2024/01/26 05:45:10;;;;;;;0.97;0.87;;;10.70;99.90;;;;;;5071839;28;20726;-73
2024/01/26 05:47:36;;;;;;;1.13;0.90;;;10.70;99.90;;;;;;5071628;28;20169;-73
2024/01/26 05:50:02;;;;;;;1.40;1.00;;;10.70;99.90;;;;;;5066544;28;20488;-73
2024/01/26 05:52:28;;;;;;;1.50;1.10;;;10.80;99.90;;;;;;5070578;28;20503;-72
2024/01/26 05:54:53;;;;;;;1.10;1.00;;;10.80;99.90;;;;;;5071725;28;20209;-71
2024/01/26 05:57:19;;;;;;;1.07;0.93;;;10.80;99.90;;;;;;5071747;28;20167;-71
2024/01/26 05:59:44;;;;;;;2.27;1.37;;;10.70;99.90;;;;;;5071595;28;20170;-71
2024/01/26 06:02:11;;;;;;;1.10;1.00;;;10.70;99.90;;;;;;5071725;28;20638;-71
2024/01/26 06:04:37;;;;;;;1.60;1.20;;;10.70;99.90;;;;;;5071731;28;20552;-71
2024/01/26 06:07:02;;;;;;;1.40;1.30;;;10.70;99.90;;;;;;5070416;28;20413;-72
2024/01/26 06:09:28;;;;;;;1.03;0.90;;;10.70;99.90;;;;;;5071901;28;20170;-72
2024/01/26 06:11:53;;;;;;;1.67;1.13;;;10.70;99.90;;;;;;5071552;28;20171;-73
2024/01/26 06:14:19;;;;;;;4.30;1.40;;;10.70;99.90;;;;;;5071546;28;20542;-73
2024/01/26 06:16:48;;;;;;;1.53;1.07;;;10.80;99.90;;;;;;5071441;28;20215;-73
2024/01/26 06:19:14;;;;;;;1.33;1.03;;;10.80;99.90;;;;;;5071772;28;20163;-74
2024/01/26 06:21:39;;;;;;;0.93;0.80;;;10.80;99.90;;;;;;5071720;28;20458;-73
2024/01/26 06:24:05;;;;;;;0.90;0.80;;;10.90;99.90;;;;;;5071596;28;20657;-74
2024/01/26 06:26:31;;;;;;;1.97;0.90;;;10.90;99.90;;;;;;5071441;28;20253;-73
2024/01/26 06:28:56;;;;;;;2.00;1.80;;;11.00;99.90;;;;;;5071653;28;20237;-73
2024/01/26 06:31:26;;;;;;;1.27;1.10;;;11.10;99.90;;;;;;5071681;28;20158;-73
2024/01/26 06:33:51;;;;;;;1.57;1.20;;;11.10;99.90;;;;;;5071505;28;20177;-73
2024/01/26 06:36:17;;;;;;;1.50;1.40;;;11.10;99.90;;;;;;5067960;28;20459;-73
2024/01/26 06:38:42;;;;;;;2.83;1.30;;;11.10;99.90;;;;;;5071304;28;20190;-73
2024/01/26 06:41:08;;;;;;;1.87;1.37;;;11.20;99.90;;;;;;5071499;28;20548;-73
2024/01/26 06:43:34;;;;;;;1.77;1.63;;;11.20;99.90;;;;;;5068650;28;20170;-73
2024/01/26 06:45:59;;;;;;;2.53;1.50;;;11.30;99.90;;;;;;5071269;28;20281;-72
2024/01/26 06:48:26;;;;;;;2.20;1.40;;;11.30;99.90;;;;;;5071264;28;20420;-72
2024/01/26 06:50:52;;;;;;;1.33;1.23;;;11.30;99.90;;;;;;5071424;28;20178;-72
2024/01/26 06:53:18;;;;;;;2.90;1.60;;;11.30;99.90;;;;;;5072577;28;20424;-72
2024/01/26 06:55:43;;;;;;;1.70;1.60;;;11.30;99.90;;;;;;5075035;28;20447;-72
2024/01/26 06:58:09;;;;;;;2.73;1.70;;;11.30;99.90;;;;;;5074841;28;20170;-73
2024/01/26 07:00:35;;;;;;;2.57;2.20;;;11.40;99.90;;;;;;5074966;28;20618;-72
2024/01/26 07:03:00;;;;;;;2.00;1.80;;;11.20;99.90;;;;;;5074962;28;20159;-72
2024/01/26 07:05:26;;;;;;;1.90;1.60;;;11.20;99.90;;;;;;5074972;28;20193;-73
2024/01/26 07:07:51;;;;;;;1.90;1.60;;;11.20;99.90;;;;;;5074669;28;20167;-73
2024/01/26 07:10:17;;;;;;;2.07;1.63;;;11.20;99.90;;;;;;5074927;28;20167;-72
2024/01/26 07:12:42;;;;;;;1.93;1.77;;;11.10;99.90;;;;;;5074728;28;20170;-73
2024/01/26 07:15:09;;;;;;;1.47;1.37;;;11.00;99.90;;;;;;5074614;28;20202;-73
2024/01/26 07:17:35;;;;;;;2.80;2.07;;;11.00;99.90;;;;;;5074496;28;20241;-72
2024/01/26 07:20:03;;;;;;;2.10;1.90;;;11.00;99.90;;;;;;5074681;28;20554;-72
2024/01/26 07:22:29;;;;;;;2.23;1.80;;;11.00;99.90;;;;;;5070342;28;20494;-72
2024/01/26 07:24:55;;;;;;;3.37;2.13;;;10.80;99.90;;;;;;5074110;28;20916;-73
2024/01/26 07:27:20;;;;;;;4.50;1.87;;;10.80;99.90;;;;;;5074201;28;20174;-73
2024/01/26 07:29:47;;;;;;;5.53;1.80;;;10.80;99.90;;;;;;5074519;28;20276;-73
2024/01/26 07:32:15;;;;;;;3.90;2.40;;;10.80;99.90;;;;;;5074480;28;20219;-73
2024/01/26 07:34:41;;;;;;;2.53;2.20;;;10.80;99.90;;;;;;5072395;28;20471;-67
2024/01/26 07:37:07;;;;;;;2.53;2.30;;;10.80;99.90;;;;;;5074108;28;20470;-70
2024/01/26 07:39:33;;;;;;;3.00;1.80;;;10.80;99.90;;;;;;5074411;28;20173;-71
2024/01/26 07:41:59;;;;;;;2.20;1.80;;;10.80;99.90;;;;;;5074169;28;20407;-70
2024/01/26 07:44:24;;;;;;;3.30;2.30;;;11.00;99.90;;;;;;5074175;28;20424;-70
2024/01/26 07:46:50;;;;;;;5.93;2.60;;;11.10;99.90;;;;;;5073872;28;20167;-69
2024/01/26 07:49:15;;;;;;;4.63;2.50;;;11.10;99.90;;;;;;5074155;28;20170;-69
2024/01/26 07:51:41;;;;;;;3.10;2.10;;;11.10;99.90;;;;;;5072935;28;20189;-67
2024/01/26 07:54:07;;;;;;;5.50;2.10;;;11.30;99.90;;;;;;5073361;28;20679;-67
2024/01/26 07:56:32;;;;;;;3.63;1.93;;;11.20;99.90;;;;;;5073676;28;20165;-66
2024/01/26 07:58:58;;;;;;;3.10;2.10;;;11.20;99.90;;;;;;5073847;28;20396;-67
2024/01/26 08:01:23;;;;;;;2.50;1.97;;;11.10;99.90;;;;;;5073808;28;20166;-67
2024/01/26 08:03:49;;;;;;;2.97;2.30;;;11.10;99.90;;;;;;5073457;28;20174;-68
2024/01/26 08:06:15;;;;;;;2.40;1.80;;;11.00;99.90;;;;;;5068785;28;20206;-67
2024/01/26 08:08:41;;;;;;;2.07;1.77;;;10.90;99.90;;;;;;5069832;28;20174;-67
2024/01/26 08:11:06;;;;;;;2.10;1.90;;;11.00;99.90;;;;;;5073597;28;20264;-67
2024/01/26 08:13:32;;;;;;;4.87;2.33;;;11.00;99.90;;;;;;5073636;28;20252;-66
2024/01/26 08:15:57;;;;;;;2.47;2.27;;;11.00;99.90;;;;;;5073208;28;20601;-67
2024/01/26 08:18:23;;;;;;;2.47;1.67;;;11.00;99.90;;;;;;5073575;28;20181;-67
2024/01/26 08:20:48;;;;;;;2.20;2.00;;;11.00;99.90;;;;;;5073673;28;20249;-67
2024/01/26 08:23:14;;;;;;;2.27;1.67;;;10.90;99.90;;;;;;5073795;28;20166;-68
2024/01/26 08:25:39;;;;;;;2.37;1.63;;;10.90;99.90;;;;;;5073491;28;20193;-67
2024/01/26 08:28:06;;;;;;;5.60;1.93;;;11.00;99.90;;;;;;5073319;28;20245;-68
2024/01/26 08:30:32;;;;;;;2.70;1.80;;;11.00;99.90;;;;;;5073421;28;20215;-67
2024/01/26 08:32:57;;;;;;;2.90;2.00;;;11.00;99.90;;;;;;5073344;28;20811;-68
2024/01/26 08:35:23;;;;;;;6.30;2.40;;;11.00;99.90;;;;;;5068194;28;20644;-67
2024/01/26 08:37:48;;;;;;;2.23;1.57;;;11.10;99.90;;;;;;5069931;28;20178;-67
2024/01/26 08:40:14;;;;;;;3.77;2.10;;;11.00;99.90;;;;;;5073115;28;20197;-67
2024/01/26 08:42:40;;;;;;;1.80;1.37;;;11.10;99.90;;;;;;5073063;28;20360;-67
2024/01/26 08:45:06;;;;;;;1.50;1.40;;;11.10;99.90;;;;;;5072846;28;20186;-68
2024/01/26 08:47:32;;;;;;;2.00;1.90;;;11.10;99.90;;;;;;5072756;28;20170;-68
2024/01/26 08:49:57;;;;;;;1.80;1.33;;;11.10;99.90;;;;;;5072936;28;20412;-67
2024/01/26 08:52:23;;;;;;;2.57;1.70;;;11.20;99.90;;;;;;5072998;28;20633;-68
2024/01/26 08:54:48;;;;;;;1.97;1.40;;;11.30;99.90;;;;;;5072691;28;20209;-67
2024/01/26 08:57:14;;;;;;;1.87;1.30;;;11.40;99.90;;;;;;5072499;28;20173;-68
2024/01/26 08:59:40;;;;;;;3.23;0.90;;;11.50;99.90;;;;;;5072748;28;20182;-67
2024/01/26 09:02:07;;;;;;;1.10;1.00;;;11.50;99.90;;;;;;5072795;28;20159;-67
2024/01/26 09:04:32;;;;;;;1.57;1.07;;;11.60;99.90;;;;;;5072638;28;20428;-68
2024/01/26 09:06:58;;;;;;;1.20;1.07;;;11.70;99.90;;;;;;5071058;28;20914;-68
2024/01/26 09:09:23;;;;;;;1.90;0.93;;;11.70;99.90;;;;;;5058149;28;20198;-68
2024/01/26 09:11:51;;;;;;;1.40;0.90;;;11.90;99.90;;;;;;5069241;28;20213;-67
2024/01/26 09:14:17;;;;;;;1.60;0.87;;;12.00;99.90;;;;;;5072200;28;20253;-69
2024/01/26 09:16:43;;;;;;;2.10;1.10;;;12.10;99.90;;;;;;5071288;28;20500;-67
2024/01/26 09:19:10;;;;;;;2.40;0.97;;;12.00;99.90;;;;;;5072295;28;20844;-67
2024/01/26 09:21:36;;;;;;;1.00;0.77;;;12.10;99.90;;;;;;5072358;28;20647;-69
2024/01/26 09:24:02;;;;;;;1.13;1.00;;;12.20;99.90;;;;;;5072321;28;20491;-69
2024/01/26 09:26:28;;;;;;;2.37;1.00;;;12.20;99.90;;;;;;5072055;28;20820;-68
2024/01/26 09:28:53;;;;;;;0.93;0.83;;;12.20;99.90;;;;;;5072284;28;20457;-68
2024/01/26 09:31:19;;;;;;;1.67;1.00;;;12.30;99.90;;;;;;5072008;28;20428;-68
2024/01/26 09:33:44;;;;;;;1.53;1.13;;;12.30;99.90;;;;;;5072249;28;20279;-68
2024/01/26 09:36:10;;;;;;;1.20;1.10;;;12.30;99.90;;;;;;5065148;28;20233;-68
2024/01/26 09:38:35;;;;;;;1.70;1.10;;;12.30;99.90;;;;;;5072092;28;20162;-68
2024/01/26 09:41:01;;;;;;;1.20;1.00;;;12.20;99.90;;;;;;5072182;28;20162;-67
2024/01/26 09:43:26;;;;;;;4.30;1.00;;;12.40;99.90;;;;;;5072093;28;20170;-67
2024/01/26 09:45:52;;;;;;;1.30;1.20;;;12.50;99.90;;;;;;5071856;28;20683;-67
2024/01/26 09:48:19;;;;;;;1.20;1.10;;;12.50;99.90;;;;;;5071975;28;20173;-67
2024/01/26 09:50:50;;;;;;;2.33;1.10;;;12.60;99.90;;;;;;5072130;28;20641;-67
2024/01/26 09:53:17;;;;;;;3.40;1.00;;;12.60;99.90;;;;;;5063339;28;20447;-67
2024/01/26 09:55:45;;;;;;;0.90;0.80;;;12.60;99.90;;;;;;5070563;28;20455;-67
2024/01/26 09:58:11;;;;;;;4.10;0.90;;;12.60;99.90;;;;;;5071410;28;20960;-68
2024/01/26 10:00:36;;;;;;;1.10;0.87;;;12.60;99.90;;;;;;5071801;28;20462;-66
2024/01/26 10:03:02;;;;;;;1.00;0.90;;;12.60;99.90;;;;;;5071479;28;20412;-67
2024/01/26 10:05:28;;;;;;;1.30;1.17;;;12.60;99.90;;;;;;5065534;28;20194;-67
2024/01/26 10:07:53;;;;;;;1.50;1.40;;;12.60;99.90;;;;;;5058544;28;20193;-68
2024/01/26 10:10:19;;;;;;;3.07;1.30;;;12.70;99.90;;;;;;5068292;28;20415;-67
2024/01/26 10:12:45;;;;;;;2.30;1.10;;;12.60;99.90;;;;;;5071502;28;20219;-67
2024/01/26 10:15:11;;;;;;;2.40;1.10;;;12.60;99.90;;;;;;5070061;28;20452;-68
2024/01/26 10:17:37;;;;;;;1.73;1.30;;;12.60;99.90;;;;;;5071287;28;20590;-67
2024/01/26 10:20:13;;;;;;;4.10;1.23;;;12.60;99.90;;;;;;5070582;28;20415;-68
2024/01/26 10:22:39;;;;;;;1.83;1.20;;;12.60;99.90;;;;;;5057430;28;20408;-68
2024/01/26 10:25:05;;;;;;;2.33;1.13;;;12.60;99.90;;;;;;5070045;28;20428;-67
2024/01/26 10:27:32;;;;;;;2.73;1.80;;;12.50;99.90;;;;;;5072658;28;20934;-66
2024/01/26 10:29:58;;;;;;;1.23;1.10;;;12.50;99.90;;;;;;5075677;28;20709;-66
2024/01/26 10:32:30;;;;;;;2.40;1.23;;;12.50;99.90;;;;;;5075537;28;20491;-66
2024/01/26 10:35:00;;;;;;;1.83;1.20;;;12.50;99.90;;;;;;5074472;28;20335;-68
2024/01/26 10:37:28;;;;;;;1.10;1.00;;;12.60;99.90;;;;;;5065481;28;20440;-65
2024/01/26 10:39:55;;;;;;;1.13;1.03;;;12.60;99.90;;;;;;5075286;28;21089;-66
2024/01/26 10:42:21;;;;;;;1.30;1.20;;;12.60;99.90;;;;;;5075265;28;20404;-66
2024/01/26 10:44:49;;;;;;;2.93;1.33;;;12.60;99.90;;;;;;5075366;28;20427;-67
2024/01/26 10:47:16;;;;;;;1.53;1.33;;;12.60;99.90;;;;;;5074954;28;20253;-69
2024/01/26 10:49:43;;;;;;;2.70;1.50;;;12.60;99.90;;;;;;5075255;28;20404;-66
2024/01/26 10:52:09;;;;;;;1.93;1.60;;;12.70;99.90;;;;;;5075223;28;20473;-66
2024/01/26 10:54:35;;;;;;;2.53;1.60;;;12.60;99.90;;;;;;5074923;28;20467;-66
2024/01/26 10:57:01;;;;;;;2.03;1.50;;;12.80;99.90;;;;;;5074852;28;20918;-67
2024/01/26 10:59:27;;;;;;;2.17;1.40;;;12.70;99.90;;;;;;5075171;28;20173;-66
2024/01/26 11:01:53;;;;;;;1.50;1.40;;;12.70;99.90;;;;;;5075040;28;20178;-66
2024/01/26 11:04:19;;;;;;;2.60;1.90;;;12.60;99.90;;;;;;5074910;28;20400;-67
2024/01/26 11:06:45;;;;;;;1.73;1.63;;;12.70;99.90;;;;;;5074724;28;20450;-66
2024/01/26 11:09:12;;;;;;;2.13;1.30;;;12.70;99.90;;;;;;5075004;28;20159;-66
2024/01/26 11:11:40;;;;;;;1.70;1.47;;;12.70;99.90;;;;;;5074893;28;20579;-67
2024/01/26 11:14:06;;;;;;;3.37;1.67;;;12.70;99.90;;;;;;5074764;28;20428;-66
2024/01/26 11:16:40;;;;;;;1.50;1.03;;;12.70;99.90;;;;;;5074554;28;20831;-66
2024/01/26 11:19:05;;;;;;;6.00;1.80;;;12.70;99.90;;;;;;5062020;28;20229;-67
2024/01/26 11:21:44;;;;;;;1.60;1.50;;;12.60;99.90;;;;;;5068185;28;20753;-66
2024/01/26 11:24:13;;;;;;;2.20;1.17;;;12.40;99.90;;;;;;5074366;28;20261;-67
2024/01/26 11:26:38;;;;;;;3.77;1.50;;;12.40;99.90;;;;;;5074086;28;20915;-67
2024/01/26 11:29:13;;;;;;;3.00;1.30;;;12.30;99.90;;;;;;5074236;28;20483;-66
2024/01/26 11:31:44;;;;;;;1.77;1.00;;;12.20;99.90;;;;;;5074673;28;20181;-66
2024/01/26 11:34:19;;;;;;;3.13;1.87;;;12.30;99.90;;;;;;5074218;28;20411;-66
2024/01/26 11:36:46;;;;;;;3.20;1.40;;;12.30;99.90;;;;;;5069366;28;20440;-66
2024/01/26 11:39:16;;;;;;;1.33;1.07;;;12.30;99.90;;;;;;5073383;28;20439;-67
2024/01/26 11:41:46;;;;;;;2.90;1.80;;;12.30;99.90;;;;;;5071987;28;20436;-66
2024/01/26 11:44:21;;;;;;;4.97;1.60;;;12.40;99.90;;;;;;5074042;28;20411;-67
2024/01/26 11:46:47;;;;;;;2.93;1.53;;;12.40;99.90;;;;;;5073741;28;20768;-66
2024/01/26 11:49:13;;;;;;;2.50;1.63;;;12.50;99.90;;;;;;5073904;28;20416;-67
2024/01/26 11:51:39;;;;;;;5.73;2.13;;;12.60;99.90;;;;;;5073964;28;20424;-68
2024/01/26 11:54:05;;;;;;;1.93;1.60;;;12.70;99.90;;;;;;5073541;28;20523;-67
2024/01/26 11:56:31;;;;;;;6.10;1.67;;;12.70;99.90;;;;;;5073389;28;20198;-66
2024/01/26 11:58:58;;;;;;;4.37;1.10;;;12.70;99.90;;;;;;5073772;28;20460;-67
2024/01/26 12:01:24;;;;;;;4.13;1.47;;;12.70;99.90;;;;;;5064788;28;20424;-67
2024/01/26 12:03:50;;;;;;;3.53;1.17;;;12.80;99.90;;;;;;5063509;28;20420;-67
2024/01/26 12:06:15;;;;;;;3.77;1.53;;;13.00;99.90;;;;;;5073242;28;20436;-67
2024/01/26 12:08:41;;;;;;;5.50;1.80;;;13.20;99.90;;;;;;5073602;28;20416;-67
2024/01/26 12:11:09;;;;;;;1.30;1.10;;;13.30;99.90;;;;;;5073454;28;20174;-66
2024/01/26 12:13:35;;;;;;;3.57;1.80;;;13.40;99.90;;;;;;5073489;28;20170;-67
2024/01/26 12:16:03;;;;;;;2.50;1.60;;;13.60;99.90;;;;;;5073138;28;20866;-67
2024/01/26 12:18:28;;;;;;;3.87;1.87;;;14.40;99.90;;;;;;5064704;28;20424;-67
2024/01/26 12:20:54;;;;;;;3.63;0.90;;;14.50;99.90;;;;;;5072001;28;20911;-67
2024/01/26 12:23:20;;;;;;;2.50;1.90;;;14.50;99.90;;;;;;5071861;28;20163;-67
2024/01/26 12:25:50;;;;;;;3.77;1.77;;;14.50;99.90;;;;;;5073180;28;20194;-67
2024/01/26 12:28:16;;;;;;;2.17;1.67;;;14.70;99.90;;;;;;5073038;28;20495;-67
2024/01/26 12:30:45;;;;;;;4.27;1.40;;;15.10;99.90;;;;;;5073351;28;20511;-67
2024/01/26 12:33:11;;;;;;;2.80;1.20;;;15.20;99.90;;;;;;5073182;28;20443;-66
2024/01/26 12:35:41;;;;;;;3.53;0.90;;;14.90;99.90;;;;;;5068341;28;20499;-66
2024/01/26 12:38:07;;;;;;;5.03;1.63;;;14.80;99.90;;;;;;5059342;28;20181;-67
2024/01/26 12:40:33;;;;;;;5.90;1.27;;;16.20;99.90;;;;;;5064665;28;20424;-67
2024/01/26 12:43:01;;;;;;;2.73;1.20;;;17.90;99.90;;;;;;5070037;28;20765;-67